createdAt,value
2022-09-12T00:00:25.166Z,12.31
2022-09-12T00:01:15.354Z,12.30
2022-09-12T00:02:02.352Z,12.27
2022-09-12T00:02:53.822Z,12.28
2022-09-12T00:03:41.047Z,12.27
2022-09-12T00:04:28.142Z,12.28
2022-09-12T00:05:14.599Z,12.29
2022-09-12T00:06:01.038Z,12.29
2022-09-12T00:06:47.508Z,12.26
2022-09-12T00:07:34.204Z,12.22
2022-09-12T00:08:20.706Z,12.23
2022-09-12T00:09:10.426Z,12.19
2022-09-12T00:09:57.026Z,12.20
2022-09-12T00:10:44.440Z,12.20
2022-09-12T00:11:31.818Z,12.18
2022-09-12T00:12:18.365Z,12.20
2022-09-12T00:13:04.802Z,12.20
2022-09-12T00:13:52.061Z,12.17
2022-09-12T00:14:38.918Z,12.16
2022-09-12T00:15:25.355Z,12.15
2022-09-12T00:16:21.920Z,12.13
2022-09-12T00:17:08.553Z,12.13
2022-09-12T00:17:55.085Z,12.15
2022-09-12T00:18:41.586Z,12.14
2022-09-12T00:19:29.063Z,12.12
2022-09-12T00:20:15.589Z,12.13
2022-09-12T00:21:04.891Z,12.09
2022-09-12T00:21:51.406Z,12.00
2022-09-12T00:22:37.905Z,11.98
2022-09-12T00:23:24.443Z,12.02
2022-09-12T00:24:11.703Z,11.98
2022-09-12T00:24:58.286Z,12.02
2022-09-12T00:25:47.346Z,12.05
2022-09-12T00:26:33.779Z,12.07
2022-09-12T00:27:20.764Z,12.04
2022-09-12T00:28:07.177Z,12.02
2022-09-12T00:28:53.708Z,12.02
2022-09-12T00:29:41.417Z,12.01
2022-09-12T00:30:27.845Z,11.99
2022-09-12T00:31:17.439Z,12.01
2022-09-12T00:32:04.630Z,12.01
2022-09-12T00:32:51.512Z,11.99
2022-09-12T00:33:38.756Z,12.00
2022-09-12T00:34:25.497Z,11.98
2022-09-12T00:35:12.896Z,11.97
2022-09-12T00:35:59.587Z,11.94
2022-09-12T00:36:46.016Z,11.94
2022-09-12T00:37:32.481Z,11.86
2022-09-12T00:38:20.287Z,11.84
2022-09-12T00:39:08.487Z,11.83
2022-09-12T00:39:54.929Z,11.78
2022-09-12T00:40:43.033Z,11.77
2022-09-12T00:41:35.933Z,11.84
2022-09-12T00:42:22.357Z,11.82
2022-09-12T00:43:33.844Z,11.79
2022-09-12T00:44:23.417Z,11.78
2022-09-12T00:45:24.304Z,11.74
2022-09-12T00:46:16.647Z,11.72
2022-09-12T00:47:20.997Z,11.70
2022-09-12T00:48:22.404Z,11.66
2022-09-12T00:49:29.297Z,11.60
2022-09-12T00:50:17.814Z,11.58
2022-09-12T00:51:05.021Z,11.67
2022-09-12T00:51:59.453Z,11.68
2022-09-12T00:52:59.912Z,11.70
2022-09-12T00:53:50.561Z,11.70
2022-09-12T00:54:49.319Z,11.67
2022-09-12T00:55:42.562Z,11.70
2022-09-12T00:56:29.989Z,11.69
2022-09-12T00:57:20.590Z,11.74
2022-09-12T00:58:13.623Z,11.77
2022-09-12T00:59:21.021Z,11.73
2022-09-12T01:00:15.575Z,11.70
2022-09-12T01:01:12.589Z,11.68
2022-09-12T01:01:59.350Z,11.65
2022-09-12T01:03:01.095Z,11.59
2022-09-12T01:03:47.594Z,11.64
2022-09-12T01:04:37.738Z,11.67
2022-09-12T01:05:28.285Z,11.66
2022-09-12T01:06:27.917Z,11.67
2022-09-12T01:07:15.333Z,11.64
2022-09-12T01:08:04.622Z,11.61
2022-09-12T01:08:52.578Z,11.60
2022-09-12T01:09:41.925Z,11.61
2022-09-12T01:10:30.698Z,11.53
2022-09-12T01:11:20.322Z,11.51
2022-09-12T01:12:06.800Z,11.47
2022-09-12T01:12:53.919Z,11.44
2022-09-12T01:13:40.759Z,11.41
2022-09-12T01:14:27.874Z,11.36
2022-09-12T01:15:15.049Z,11.34
2022-09-12T01:16:05.927Z,11.36
2022-09-12T01:16:52.811Z,11.45
2022-09-12T01:18:01.820Z,11.50
2022-09-12T01:19:09.035Z,11.55
2022-09-12T01:20:36.944Z,11.66
2022-09-12T01:22:00.061Z,11.65
2022-09-12T01:23:41.505Z,11.55
2022-09-12T01:24:51.702Z,11.50
2022-09-12T01:25:56.026Z,11.47
2022-09-12T01:27:17.716Z,11.45
2022-09-12T01:28:39.806Z,11.51
2022-09-12T01:29:54.087Z,11.47
2022-09-12T01:30:40.502Z,11.43
2022-09-12T01:32:03.805Z,11.39
2022-09-12T01:33:35.198Z,11.37
2022-09-12T01:34:47.610Z,11.33
2022-09-12T01:36:11.354Z,11.30
2022-09-12T01:37:28.882Z,11.33
2022-09-12T01:38:26.329Z,11.31
2022-09-12T01:39:39.589Z,11.31
2022-09-12T01:40:49.087Z,11.29
2022-09-12T01:41:49.938Z,11.32
2022-09-12T01:43:01.307Z,11.30
2022-09-12T01:44:01.593Z,11.32
2022-09-12T01:45:03.429Z,11.31
2022-09-12T01:45:49.800Z,11.28
2022-09-12T01:46:49.691Z,11.50
2022-09-12T01:47:51.684Z,11.30
2022-09-12T01:49:00.191Z,11.32
2022-09-12T01:50:01.948Z,11.19
2022-09-12T01:51:13.543Z,11.19
2022-09-12T01:52:09.718Z,11.17
2022-09-12T01:53:04.646Z,11.16
2022-09-12T01:53:58.575Z,11.13
2022-09-12T01:55:18.174Z,11.13
2022-09-12T01:56:17.728Z,11.12
2022-09-12T01:57:13.549Z,11.07
2022-09-12T01:58:09.659Z,11.10
2022-09-12T01:59:10.551Z,11.09
2022-09-12T02:00:07.020Z,11.09
2022-09-12T02:01:34.215Z,11.13
2022-09-12T02:02:51.868Z,11.09
2022-09-12T02:03:49.521Z,11.11
2022-09-12T02:04:55.483Z,11.11
2022-09-12T02:05:56.326Z,11.10
2022-09-12T02:07:00.137Z,11.07
2022-09-12T02:07:53.674Z,11.09
2022-09-12T02:08:56.254Z,11.09
2022-09-12T02:10:01.939Z,11.09
2022-09-12T02:11:12.584Z,11.07
2022-09-12T02:12:01.964Z,11.06
2022-09-12T02:13:07.071Z,11.07
2022-09-12T02:14:01.270Z,11.06
2022-09-12T02:15:00.660Z,11.07
2022-09-12T02:15:58.353Z,11.03
2022-09-12T02:17:00.107Z,11.03
2022-09-12T02:17:52.253Z,10.98
2022-09-12T02:18:50.146Z,11.00
2022-09-12T02:19:45.755Z,11.00
2022-09-12T02:20:54.625Z,10.98
2022-09-12T02:21:50.404Z,10.99
2022-09-12T02:22:40.294Z,11.07
2022-09-12T02:23:30.925Z,11.20
2022-09-12T02:24:20.207Z,11.10
2022-09-12T02:25:11.599Z,11.15
2022-09-12T02:26:09.344Z,11.10
2022-09-12T02:27:12.688Z,11.06
2022-09-12T02:28:08.841Z,11.02
2022-09-12T02:28:56.873Z,11.03
2022-09-12T02:29:44.927Z,11.07
2022-09-12T02:30:55.054Z,11.06
2022-09-12T02:31:47.478Z,11.03
2022-09-12T02:32:47.283Z,11.03
2022-09-12T02:33:49.964Z,10.98
2022-09-12T02:34:53.253Z,10.96
2022-09-12T02:35:47.596Z,10.90
2022-09-12T02:37:00.846Z,10.89
2022-09-12T02:37:56.309Z,10.88
2022-09-12T02:38:48.041Z,10.93
2022-09-12T02:39:35.136Z,10.96
2022-09-12T02:40:23.247Z,10.93
2022-09-12T02:41:10.124Z,10.84
2022-09-12T02:42:01.502Z,10.84
2022-09-12T02:42:47.963Z,10.85
2022-09-12T02:43:34.457Z,10.83
2022-09-12T02:44:21.564Z,10.84
2022-09-12T02:45:09.571Z,10.83
2022-09-12T02:45:56.315Z,10.83
2022-09-12T02:46:50.961Z,10.81
2022-09-12T02:48:01.668Z,10.80
2022-09-12T02:48:48.082Z,10.80
2022-09-12T02:49:34.494Z,10.81
2022-09-12T02:50:21.281Z,10.81
2022-09-12T02:51:08.448Z,10.81
2022-09-12T02:51:55.688Z,10.81
2022-09-12T02:52:44.027Z,10.81
2022-09-12T02:53:31.052Z,10.81
2022-09-12T02:54:19.129Z,10.80
2022-09-12T02:55:06.558Z,10.83
2022-09-12T02:55:53.501Z,10.84
2022-09-12T02:56:42.653Z,10.83
2022-09-12T02:57:29.150Z,10.82
2022-09-12T02:58:25.397Z,10.82
2022-09-12T02:59:17.752Z,10.84
2022-09-12T03:00:06.013Z,10.83
2022-09-12T03:01:29.265Z,10.82
2022-09-12T03:03:02.315Z,10.81
2022-09-12T03:04:10.591Z,10.81
2022-09-12T03:05:52.031Z,10.76
2022-09-12T03:07:03.365Z,10.78
2022-09-12T03:08:21.438Z,10.77
2022-09-12T03:09:21.119Z,10.76
2022-09-12T03:10:24.920Z,10.75
2022-09-12T03:11:48.630Z,10.75
2022-09-12T03:12:47.841Z,10.73
2022-09-12T03:13:55.857Z,10.74
2022-09-12T03:14:45.375Z,10.73
2022-09-12T03:15:53.217Z,10.72
2022-09-12T03:17:00.443Z,10.71
2022-09-12T03:18:09.520Z,10.68
2022-09-12T03:19:09.036Z,10.70
2022-09-12T03:20:38.977Z,10.70
2022-09-12T03:21:37.253Z,10.71
2022-09-12T03:22:53.828Z,10.72
2022-09-12T03:24:22.801Z,10.72
2022-09-12T03:25:27.871Z,10.71
2022-09-12T03:26:36.250Z,10.71
2022-09-12T03:27:34.161Z,10.71
2022-09-12T03:28:22.765Z,10.72
2022-09-12T03:29:12.925Z,10.71
2022-09-12T03:30:00.048Z,10.72
2022-09-12T03:30:49.133Z,10.68
2022-09-12T03:31:35.942Z,10.70
2022-09-12T03:32:43.931Z,10.69
2022-09-12T03:33:30.509Z,10.69
2022-09-12T03:34:17.363Z,10.69
2022-09-12T03:35:04.485Z,10.67
2022-09-12T03:35:53.028Z,10.66
2022-09-12T03:36:41.035Z,10.65
2022-09-12T03:37:27.427Z,10.66
2022-09-12T03:38:14.189Z,10.66
2022-09-12T03:39:00.628Z,10.65
2022-09-12T03:39:47.055Z,10.64
2022-09-12T03:40:34.930Z,10.64
2022-09-12T03:41:21.519Z,10.63
2022-09-12T03:42:08.104Z,10.62
2022-09-12T03:42:54.551Z,10.61
2022-09-12T03:43:41.403Z,10.58
2022-09-12T03:44:27.896Z,10.60
2022-09-12T03:45:14.570Z,10.55
2022-09-12T03:46:01.212Z,10.59
2022-09-12T03:46:47.722Z,10.58
2022-09-12T03:47:34.350Z,10.58
2022-09-12T03:48:21.081Z,10.59
2022-09-12T03:49:07.725Z,10.60
2022-09-12T03:49:54.129Z,10.60
2022-09-12T03:50:40.529Z,10.57
2022-09-12T03:51:27.351Z,10.57
2022-09-12T03:52:13.805Z,10.57
2022-09-12T03:53:00.326Z,10.54
2022-09-12T03:53:46.751Z,10.53
2022-09-12T03:54:33.384Z,10.55
2022-09-12T03:55:19.890Z,10.53
2022-09-12T03:56:11.192Z,10.54
2022-09-12T03:56:57.789Z,10.54
2022-09-12T03:57:44.717Z,10.51
2022-09-12T03:58:31.298Z,10.52
2022-09-12T03:59:17.712Z,10.52
2022-09-12T04:00:08.849Z,10.50
2022-09-12T04:01:12.426Z,10.51
2022-09-12T04:01:59.173Z,10.50
2022-09-12T04:02:45.659Z,10.50
2022-09-12T04:03:32.086Z,10.50
2022-09-12T04:04:18.701Z,10.48
2022-09-12T04:05:05.422Z,10.49
2022-09-12T04:05:52.837Z,10.48
2022-09-12T04:06:39.353Z,10.48
2022-09-12T04:07:25.867Z,10.49
2022-09-12T04:08:12.483Z,10.49
2022-09-12T04:08:59.170Z,10.46
2022-09-12T04:09:48.161Z,10.47
2022-09-12T04:10:34.693Z,10.48
2022-09-12T04:11:23.017Z,10.47
2022-09-12T04:12:09.629Z,10.45
2022-09-12T04:12:56.023Z,10.44
2022-09-12T04:13:44.796Z,10.44
2022-09-12T04:14:31.387Z,10.43
2022-09-12T04:15:17.803Z,10.43
2022-09-12T04:16:05.786Z,10.42
2022-09-12T04:16:52.315Z,10.43
2022-09-12T04:17:38.797Z,10.44
2022-09-12T04:18:26.035Z,10.44
2022-09-12T04:19:12.524Z,10.44
2022-09-12T04:19:58.920Z,10.44
2022-09-12T04:20:45.544Z,10.43
2022-09-12T04:21:32.029Z,10.43
2022-09-12T04:22:18.457Z,10.44
2022-09-12T04:23:04.856Z,10.43
2022-09-12T04:23:52.009Z,10.43
2022-09-12T04:24:38.416Z,10.45
2022-09-12T04:25:24.919Z,10.46
2022-09-12T04:26:13.933Z,10.47
2022-09-12T04:27:01.379Z,10.51
2022-09-12T04:27:50.160Z,10.50
2022-09-12T04:28:38.091Z,10.54
2022-09-12T04:29:24.701Z,10.54
2022-09-12T04:30:11.576Z,10.56
2022-09-12T04:31:20.103Z,10.54
2022-09-12T04:32:07.008Z,10.55
2022-09-12T04:32:53.428Z,10.59
2022-09-12T04:33:39.923Z,10.59
2022-09-12T04:34:26.403Z,10.59
2022-09-12T04:35:13.958Z,10.59
2022-09-12T04:36:10.001Z,10.59
2022-09-12T04:36:56.449Z,10.53
2022-09-12T04:37:42.837Z,10.54
2022-09-12T04:38:29.233Z,10.54
2022-09-12T04:39:16.907Z,10.53
2022-09-12T04:40:03.727Z,10.52
2022-09-12T04:40:50.175Z,10.51
2022-09-12T04:41:38.831Z,10.50
2022-09-12T04:42:25.242Z,10.51
2022-09-12T04:43:14.572Z,10.53
2022-09-12T04:44:21.368Z,10.50
2022-09-12T04:45:08.386Z,10.53
2022-09-12T04:45:54.780Z,10.52
2022-09-12T04:46:45.306Z,10.52
2022-09-12T04:47:31.787Z,10.52
2022-09-12T04:48:18.955Z,10.51
2022-09-12T04:49:05.795Z,10.50
2022-09-12T04:49:52.356Z,10.52
2022-09-12T04:50:38.821Z,10.53
2022-09-12T04:51:28.783Z,10.53
2022-09-12T04:52:15.233Z,10.55
2022-09-12T04:53:01.733Z,10.61
2022-09-12T04:53:51.928Z,10.63
2022-09-12T04:54:38.631Z,10.61
2022-09-12T04:55:25.293Z,10.61
2022-09-12T04:56:12.084Z,10.60
2022-09-12T04:56:58.952Z,10.61
2022-09-12T04:57:45.574Z,10.59
2022-09-12T04:58:33.304Z,10.58
2022-09-12T04:59:21.774Z,10.58
2022-09-12T05:00:08.974Z,10.57
2022-09-12T05:00:55.967Z,10.59
2022-09-12T05:01:43.456Z,10.57
2022-09-12T05:02:29.949Z,10.58
2022-09-12T05:03:16.377Z,10.55
2022-09-12T05:04:03.740Z,10.57
2022-09-12T05:04:50.197Z,10.55
2022-09-12T05:05:36.622Z,10.60
2022-09-12T05:06:30.086Z,10.60
2022-09-12T05:07:16.823Z,10.61
2022-09-12T05:08:03.267Z,10.60
2022-09-12T05:08:51.384Z,10.61
2022-09-12T05:09:37.805Z,10.63
2022-09-12T05:10:24.539Z,10.63
2022-09-12T05:11:14.197Z,10.64
2022-09-12T05:12:05.187Z,10.64
2022-09-12T05:12:52.656Z,10.61
2022-09-12T05:13:40.158Z,10.66
2022-09-12T05:14:26.608Z,10.66
2022-09-12T05:15:13.257Z,10.67
2022-09-12T05:16:01.679Z,10.63
2022-09-12T05:16:49.569Z,10.64
2022-09-12T05:17:36.203Z,10.69
2022-09-12T05:18:22.852Z,10.65
2022-09-12T05:19:11.544Z,10.70
2022-09-12T05:19:58.190Z,10.71
2022-09-12T05:20:44.600Z,10.71
2022-09-12T05:21:31.263Z,10.71
2022-09-12T05:22:17.654Z,10.74
2022-09-12T05:23:04.146Z,10.76
2022-09-12T05:23:51.926Z,10.76
2022-09-12T05:24:39.107Z,10.78
2022-09-12T05:25:25.971Z,10.80
2022-09-12T05:26:15.223Z,10.81
2022-09-12T05:27:04.785Z,10.82
2022-09-12T05:27:55.207Z,10.84
2022-09-12T05:28:42.990Z,10.84
2022-09-12T05:29:29.571Z,10.87
2022-09-12T05:30:16.197Z,10.85
2022-09-12T05:31:17.764Z,10.89
2022-09-12T05:32:04.758Z,10.90
2022-09-12T05:32:51.454Z,10.91
2022-09-12T05:33:39.899Z,10.93
2022-09-12T05:34:27.798Z,10.93
2022-09-12T05:35:14.358Z,10.97
2022-09-12T05:36:01.462Z,11.00
2022-09-12T05:36:47.961Z,11.05
2022-09-12T05:37:34.382Z,11.08
2022-09-12T05:38:20.781Z,11.09
2022-09-12T05:39:07.217Z,11.11
2022-09-12T05:39:53.801Z,11.13
2022-09-12T05:40:40.268Z,11.12
2022-09-12T05:41:33.058Z,11.15
2022-09-12T05:42:19.462Z,11.16
2022-09-12T05:43:05.861Z,11.18
2022-09-12T05:43:59.234Z,11.21
2022-09-12T05:44:45.693Z,11.21
2022-09-12T05:45:32.306Z,11.23
2022-09-12T05:46:21.623Z,11.26
2022-09-12T05:47:11.614Z,11.28
2022-09-12T05:47:58.117Z,11.30
2022-09-12T05:48:47.128Z,11.30
2022-09-12T05:49:35.251Z,11.32
2022-09-12T05:50:21.677Z,11.32
2022-09-12T05:51:17.421Z,11.35
2022-09-12T05:52:04.372Z,11.39
2022-09-12T05:52:50.817Z,11.39
2022-09-12T05:53:38.744Z,11.40
2022-09-12T05:54:28.330Z,11.43
2022-09-12T05:55:17.489Z,11.46
2022-09-12T05:56:11.013Z,11.46
2022-09-12T05:56:57.504Z,11.47
2022-09-12T05:57:46.015Z,11.49
2022-09-12T05:58:33.874Z,11.51
2022-09-12T05:59:21.586Z,11.55
2022-09-12T06:00:09.867Z,11.55
2022-09-12T06:01:07.330Z,11.59
2022-09-12T06:01:53.742Z,11.61
2022-09-12T06:02:40.719Z,11.66
2022-09-12T06:03:27.274Z,11.67
2022-09-12T06:04:14.508Z,11.73
2022-09-12T06:05:01.930Z,11.74
2022-09-12T06:05:50.646Z,11.74
2022-09-12T06:06:44.820Z,11.76
2022-09-12T06:07:32.663Z,11.77
2022-09-12T06:08:19.117Z,11.81
2022-09-12T06:09:07.044Z,11.80
2022-09-12T06:09:53.840Z,11.84
2022-09-12T06:10:40.334Z,11.89
2022-09-12T06:11:29.747Z,11.91
2022-09-12T06:12:16.212Z,11.92
2022-09-12T06:13:03.894Z,11.96
2022-09-12T06:13:53.260Z,11.97
2022-09-12T06:14:39.639Z,12.00
2022-09-12T06:15:26.058Z,12.02
2022-09-12T06:16:17.989Z,12.04
2022-09-12T06:17:06.021Z,12.07
2022-09-12T06:17:54.445Z,12.09
2022-09-12T06:18:42.283Z,12.12
2022-09-12T06:19:28.717Z,12.16
2022-09-12T06:20:15.432Z,12.17
2022-09-12T06:21:07.302Z,12.21
2022-09-12T06:21:54.167Z,12.22
2022-09-12T06:22:40.819Z,12.25
2022-09-12T06:23:27.482Z,12.29
2022-09-12T06:24:13.969Z,12.31
2022-09-12T06:25:00.388Z,12.33
2022-09-12T06:25:49.438Z,12.36
2022-09-12T06:26:36.563Z,12.43
2022-09-12T06:27:22.960Z,12.44
2022-09-12T06:28:09.393Z,12.46
2022-09-12T06:28:57.994Z,12.49
2022-09-12T06:29:44.426Z,12.52
2022-09-12T06:30:31.371Z,12.53
2022-09-12T06:31:20.876Z,12.57
2022-09-12T06:32:07.599Z,12.62
2022-09-12T06:32:54.035Z,12.64
2022-09-12T06:33:44.126Z,12.70
2022-09-12T06:34:30.922Z,12.72
2022-09-12T06:35:17.476Z,12.76
2022-09-12T06:36:12.564Z,12.78
2022-09-12T06:36:59.471Z,12.85
2022-09-12T06:37:45.893Z,12.88
2022-09-12T06:38:33.150Z,12.93
2022-09-12T06:39:22.567Z,12.95
2022-09-12T06:40:10.695Z,13.01
2022-09-12T06:41:00.493Z,13.04
2022-09-12T06:41:49.545Z,13.08
2022-09-12T06:42:36.000Z,13.08
2022-09-12T06:43:22.624Z,13.14
2022-09-12T06:44:14.107Z,13.15
2022-09-12T06:45:00.628Z,13.25
2022-09-12T06:45:51.086Z,13.26
2022-09-12T06:46:37.526Z,13.28
2022-09-12T06:47:23.968Z,13.44
2022-09-12T06:48:10.396Z,13.42
2022-09-12T06:48:59.353Z,13.50
2022-09-12T06:49:45.733Z,13.55
2022-09-12T06:50:32.278Z,13.54
2022-09-12T06:51:22.997Z,13.62
2022-09-12T06:52:09.482Z,13.64
2022-09-12T06:53:00.276Z,13.63
2022-09-12T06:53:48.402Z,13.72
2022-09-12T06:54:34.918Z,13.72
2022-09-12T06:55:27.645Z,13.76
2022-09-12T06:56:21.176Z,13.83
2022-09-12T06:57:08.886Z,13.81
2022-09-12T06:57:55.589Z,13.86
2022-09-12T06:58:43.431Z,13.86
2022-09-12T06:59:30.118Z,13.92
2022-09-12T07:00:17.845Z,14.09
2022-09-12T07:01:12.982Z,14.05
2022-09-12T07:01:59.582Z,14.06
2022-09-12T07:02:46.072Z,14.06
2022-09-12T07:03:33.928Z,14.07
2022-09-12T07:04:20.322Z,14.08
2022-09-12T07:05:07.685Z,14.12
2022-09-12T07:05:54.114Z,14.13
2022-09-12T07:06:42.789Z,14.14
2022-09-12T07:07:31.546Z,14.16
2022-09-12T07:08:17.986Z,14.17
2022-09-12T07:09:07.926Z,14.18
2022-09-12T07:09:54.330Z,14.22
2022-09-12T07:10:40.939Z,14.27
2022-09-12T07:11:31.761Z,14.29
2022-09-12T07:12:18.253Z,14.41
2022-09-12T07:13:04.673Z,14.41
2022-09-12T07:13:54.609Z,14.47
2022-09-12T07:14:41.544Z,14.44
2022-09-12T07:15:28.000Z,14.43
2022-09-12T07:16:19.210Z,14.44
2022-09-12T07:17:06.755Z,14.48
2022-09-12T07:17:53.266Z,14.50
2022-09-12T07:18:40.605Z,14.52
2022-09-12T07:19:27.005Z,14.53
2022-09-12T07:20:13.459Z,14.58
2022-09-12T07:21:01.860Z,14.55
2022-09-12T07:21:48.384Z,14.58
2022-09-12T07:22:34.880Z,14.60
2022-09-12T07:23:21.334Z,14.58
2022-09-12T07:24:09.912Z,14.64
2022-09-12T07:24:57.574Z,14.71
2022-09-12T07:25:43.979Z,14.70
2022-09-12T07:26:30.490Z,14.74
2022-09-12T07:27:16.888Z,14.73
2022-09-12T07:28:03.449Z,14.73
2022-09-12T07:28:54.582Z,14.77
2022-09-12T07:29:40.996Z,14.81
2022-09-12T07:30:27.502Z,14.84
2022-09-12T07:31:17.630Z,14.85
2022-09-12T07:32:05.764Z,14.87
2022-09-12T07:32:55.516Z,14.88
2022-09-12T07:33:43.450Z,14.94
2022-09-12T07:34:29.876Z,14.93
2022-09-12T07:35:16.302Z,15.04
2022-09-12T07:36:11.683Z,15.04
2022-09-12T07:36:58.608Z,15.08
2022-09-12T07:37:45.005Z,15.08
2022-09-12T07:38:31.451Z,15.14
2022-09-12T07:39:18.090Z,15.20
2022-09-12T07:40:04.878Z,15.25
2022-09-12T07:40:51.287Z,15.32
2022-09-12T07:41:37.923Z,15.38
2022-09-12T07:42:24.316Z,15.41
2022-09-12T07:43:10.741Z,15.47
2022-09-12T07:43:59.928Z,15.58
2022-09-12T07:44:46.351Z,15.59
2022-09-12T07:45:32.863Z,15.64
2022-09-12T07:46:20.145Z,15.75
2022-09-12T07:47:06.882Z,15.80
2022-09-12T07:47:54.715Z,15.80
2022-09-12T07:48:41.406Z,15.82
2022-09-12T07:49:27.829Z,15.89
2022-09-12T07:50:14.375Z,15.95
2022-09-12T07:51:03.956Z,15.98
2022-09-12T07:51:50.422Z,16.04
2022-09-12T07:52:36.842Z,16.14
2022-09-12T07:53:23.250Z,16.17
2022-09-12T07:54:10.338Z,16.19
2022-09-12T07:54:56.744Z,16.27
2022-09-12T07:55:43.209Z,16.34
2022-09-12T07:56:32.751Z,16.45
2022-09-12T07:57:21.226Z,16.44
2022-09-12T07:58:07.631Z,16.46
2022-09-12T07:58:54.599Z,16.52
2022-09-12T07:59:52.423Z,16.57
2022-09-12T08:00:39.798Z,16.72
2022-09-12T08:01:26.957Z,16.78
2022-09-12T08:02:17.191Z,16.90
2022-09-12T08:03:04.360Z,16.92
2022-09-12T08:03:56.899Z,16.95
2022-09-12T08:04:44.168Z,16.99
2022-09-12T08:05:30.871Z,16.97
2022-09-12T08:06:20.242Z,17.01
2022-09-12T08:07:07.308Z,17.15
2022-09-12T08:07:57.663Z,17.14
2022-09-12T08:08:44.319Z,17.13
2022-09-12T08:09:30.727Z,17.11
2022-09-12T08:10:17.227Z,17.13
2022-09-12T08:11:07.095Z,17.14
2022-09-12T08:11:53.569Z,17.16
2022-09-12T08:12:40.037Z,17.14
2022-09-12T08:13:30.296Z,17.14
2022-09-12T08:14:17.669Z,17.14
2022-09-12T08:15:04.686Z,17.14
2022-09-12T08:15:51.117Z,17.22
2022-09-12T08:16:37.904Z,17.24
2022-09-12T08:17:24.287Z,17.25
2022-09-12T08:18:11.254Z,17.22
2022-09-12T08:18:59.671Z,17.21
2022-09-12T08:19:46.097Z,17.20
2022-09-12T08:20:32.856Z,17.31
2022-09-12T08:21:28.501Z,17.31
2022-09-12T08:22:15.312Z,17.33
2022-09-12T08:23:01.837Z,17.35
2022-09-12T08:23:53.546Z,17.38
2022-09-12T08:24:39.999Z,17.35
2022-09-12T08:25:26.654Z,17.31
2022-09-12T08:26:14.008Z,17.34
2022-09-12T08:27:00.489Z,17.40
2022-09-12T08:27:46.940Z,17.36
2022-09-12T08:28:35.937Z,17.38
2022-09-12T08:29:22.349Z,17.28
2022-09-12T08:30:09.835Z,17.33
2022-09-12T08:31:05.671Z,17.32
2022-09-12T08:31:56.610Z,17.33
2022-09-12T08:32:43.968Z,17.31
2022-09-12T08:33:34.640Z,17.33
2022-09-12T08:34:21.231Z,17.33
2022-09-12T08:35:08.016Z,17.29
2022-09-12T08:35:54.516Z,17.26
2022-09-12T08:36:41.154Z,17.24
2022-09-12T08:37:31.264Z,17.27
2022-09-12T08:38:19.584Z,17.23
2022-09-12T08:39:08.050Z,17.24
2022-09-12T08:39:54.566Z,17.27
2022-09-12T08:40:53.120Z,17.26
2022-09-12T08:41:43.200Z,17.29
2022-09-12T08:42:51.957Z,17.41
2022-09-12T08:44:09.221Z,17.49
2022-09-12T08:45:08.175Z,17.51
2022-09-12T08:46:08.471Z,17.52
2022-09-12T08:47:09.864Z,17.55
2022-09-12T08:47:56.948Z,17.52
2022-09-12T08:48:46.436Z,17.60
2022-09-12T08:50:00.759Z,17.71
2022-09-12T08:50:49.899Z,17.74
2022-09-12T08:51:37.962Z,17.83
2022-09-12T08:52:48.877Z,17.85
2022-09-12T08:53:37.437Z,17.94
2022-09-12T08:54:29.422Z,17.96
2022-09-12T08:55:33.334Z,18.10
2022-09-12T08:56:19.965Z,18.14
2022-09-12T08:57:09.814Z,18.12
2022-09-12T08:57:57.439Z,18.06
2022-09-12T08:58:45.965Z,18.12
2022-09-12T08:59:40.308Z,18.19
2022-09-12T09:00:40.431Z,18.17
2022-09-12T09:01:35.529Z,18.15
2022-09-12T09:02:50.874Z,18.26
2022-09-12T09:04:06.084Z,18.21
2022-09-12T09:05:15.394Z,18.24
2022-09-12T09:06:37.520Z,18.19
2022-09-12T09:08:00.677Z,18.19
2022-09-12T09:09:08.569Z,18.24
2022-09-12T09:10:41.695Z,18.23
2022-09-12T09:11:52.008Z,18.31
2022-09-12T09:12:50.565Z,18.36
2022-09-12T09:14:23.851Z,18.48
2022-09-12T09:15:29.275Z,18.55
2022-09-12T09:16:33.244Z,18.65
2022-09-12T09:17:27.703Z,18.68
2022-09-12T09:18:39.156Z,18.70
2022-09-12T09:19:34.193Z,18.76
2022-09-12T09:20:57.665Z,18.85
2022-09-12T09:22:00.785Z,18.98
2022-09-12T09:22:54.458Z,19.06
2022-09-12T09:23:49.450Z,19.00
2022-09-12T09:25:01.519Z,19.13
2022-09-12T09:26:22.309Z,19.12
2022-09-12T09:27:39.967Z,19.18
2022-09-12T09:28:46.069Z,19.34
2022-09-12T09:29:45.481Z,19.38
2022-09-12T09:30:36.082Z,19.40
2022-09-12T09:31:25.027Z,19.36
2022-09-12T09:32:27.700Z,19.37
2022-09-12T09:33:23.338Z,19.31
2022-09-12T09:34:18.218Z,19.34
2022-09-12T09:35:42.866Z,19.54
2022-09-12T09:36:38.473Z,19.61
2022-09-12T09:37:44.581Z,19.67
2022-09-12T09:38:40.912Z,19.67
2022-09-12T09:39:51.502Z,19.66
2022-09-12T09:40:54.126Z,19.79
2022-09-12T09:42:11.407Z,19.79
2022-09-12T09:43:05.278Z,19.90
2022-09-12T09:43:51.917Z,19.93
2022-09-12T09:44:38.968Z,19.93
2022-09-12T09:45:29.036Z,19.99
2022-09-12T09:46:16.192Z,20.00
2022-09-12T09:47:03.047Z,19.97
2022-09-12T09:48:13.244Z,20.06
2022-09-12T09:49:10.408Z,20.09
2022-09-12T09:49:56.971Z,20.21
2022-09-12T09:50:46.058Z,20.14
2022-09-12T09:51:37.499Z,20.19
2022-09-12T09:52:30.565Z,20.27
2022-09-12T09:53:33.542Z,20.27
2022-09-12T09:54:34.050Z,20.34
2022-09-12T09:55:30.897Z,20.28
2022-09-12T09:56:40.037Z,20.26
2022-09-12T09:57:35.547Z,20.25
2022-09-12T09:58:35.185Z,20.23
2022-09-12T09:59:31.324Z,20.34
2022-09-12T10:00:21.988Z,20.27
2022-09-12T10:01:20.099Z,20.22
2022-09-12T10:02:13.061Z,20.27
2022-09-12T10:03:12.761Z,20.24
2022-09-12T10:04:00.984Z,20.21
2022-09-12T10:04:56.459Z,20.28
2022-09-12T10:05:49.318Z,20.34
2022-09-12T10:06:38.625Z,20.38
2022-09-12T10:07:26.803Z,20.38
2022-09-12T10:08:26.381Z,20.47
2022-09-12T10:09:13.296Z,20.60
2022-09-12T10:10:15.786Z,20.69
2022-09-12T10:11:06.824Z,20.71
2022-09-12T10:11:55.473Z,20.75
2022-09-12T10:12:43.004Z,20.85
2022-09-12T10:13:51.274Z,20.85
2022-09-12T10:14:41.768Z,20.73
2022-09-12T10:15:29.412Z,20.67
2022-09-12T10:16:22.499Z,20.74
2022-09-12T10:17:42.022Z,20.77
2022-09-12T10:18:42.783Z,20.83
2022-09-12T10:19:40.328Z,20.80
2022-09-12T10:20:40.515Z,20.81
2022-09-12T10:21:30.692Z,20.88
2022-09-12T10:22:24.416Z,20.94
2022-09-12T10:23:37.133Z,20.98
2022-09-12T10:24:34.168Z,21.00
2022-09-12T10:25:25.966Z,21.08
2022-09-12T10:26:16.214Z,21.08
2022-09-12T10:27:11.847Z,21.14
2022-09-12T10:28:01.009Z,21.14
2022-09-12T10:28:53.478Z,21.23
2022-09-12T10:29:49.113Z,21.17
2022-09-12T10:30:36.177Z,21.20
2022-09-12T10:31:42.998Z,21.27
2022-09-12T10:32:43.760Z,21.32
2022-09-12T10:33:40.131Z,21.29
2022-09-12T10:34:34.449Z,21.31
2022-09-12T10:35:24.394Z,21.36
2022-09-12T10:36:11.450Z,21.41
2022-09-12T10:37:05.428Z,21.39
2022-09-12T10:38:05.893Z,21.40
2022-09-12T10:39:00.875Z,21.55
2022-09-12T10:39:56.125Z,21.54
2022-09-12T10:40:44.083Z,21.58
2022-09-12T10:41:40.399Z,21.56
2022-09-12T10:42:45.102Z,21.66
2022-09-12T10:43:37.364Z,21.63
2022-09-12T10:44:32.816Z,21.66
2022-09-12T10:45:28.982Z,21.66
2022-09-12T10:46:15.941Z,21.62
2022-09-12T10:47:24.206Z,21.60
2022-09-12T10:48:32.395Z,21.58
2022-09-12T10:49:37.920Z,21.56
2022-09-12T10:50:31.249Z,21.55
2022-09-12T10:51:23.460Z,21.62
2022-09-12T10:52:24.890Z,21.63
2022-09-12T10:53:22.755Z,21.66
2022-09-12T10:54:13.022Z,21.65
2022-09-12T10:54:59.654Z,21.65
2022-09-12T10:56:12.570Z,21.73
2022-09-12T10:57:16.905Z,21.75
2022-09-12T10:58:18.802Z,21.68
2022-09-12T10:59:19.422Z,21.68
2022-09-12T11:00:17.799Z,21.72
2022-09-12T11:01:32.480Z,21.91
2022-09-12T11:02:29.655Z,22.02
2022-09-12T11:03:24.892Z,21.94
2022-09-12T11:04:40.350Z,22.00
2022-09-12T11:05:37.252Z,22.02
2022-09-12T11:06:38.003Z,22.03
2022-09-12T11:07:43.753Z,22.13
2022-09-12T11:08:59.872Z,22.17
2022-09-12T11:10:03.493Z,22.17
2022-09-12T11:11:16.700Z,22.17
2022-09-12T11:12:43.923Z,22.31
2022-09-12T11:13:42.791Z,22.37
2022-09-12T11:15:03.075Z,22.42
2022-09-12T11:16:21.684Z,22.52
2022-09-12T11:17:36.040Z,22.38
2022-09-12T11:18:37.670Z,22.34
2022-09-12T11:19:38.527Z,22.32
2022-09-12T11:20:30.950Z,22.33
2022-09-12T11:21:48.132Z,22.35
2022-09-12T11:22:49.644Z,22.42